ELY5138 LCPH-LLBG
Flight info
| Callsign | ELY5138 |
|---|---|
| Flight time | 0h 47m |
| Altitude | 25000 |
| Route | ESERI DCT IDAKU L35 PIKOG L609 ZUKKO |
| Aircraft | B738/M-SDE2E3FGHIRWXY/LB1 |
Departure
| Time | 2026-05-07 16:46 |
|---|---|
| Airport | Paphos International Airport (LCPH) |
Arrival
| Time | 2026-05-07 17:33 |
|---|---|
| Airport | Ben Gurion International Airport (LLBG) |
| Time | Latitude | Longitude | Altitude | Speed | Heading |
|---|---|---|---|---|---|
| 2026-05-07 16:28 | 34.71343 | 32.48165 | 43 ft | 0 kts | 235° |
| 2026-05-07 16:39 | 34.71346 | 32.48171 | 43 ft | 3 kts | 234° |
| 2026-05-07 16:39 | 34.71359 | 32.48191 | 40 ft | 3 kts | 225° |
| 2026-05-07 16:39 | 34.71375 | 32.48206 | 41 ft | 3 kts | 207° |
| 2026-05-07 16:39 | 34.71392 | 32.48213 | 40 ft | 3 kts | 169° |
| 2026-05-07 16:40 | 34.71403 | 32.48209 | 40 ft | 0 kts | 138° |
| 2026-05-07 16:41 | 34.71401 | 32.48211 | 40 ft | 2 kts | 138° |
| 2026-05-07 16:42 | 34.71376 | 32.48256 | 43 ft | 11 kts | 103° |
| 2026-05-07 16:42 | 34.71377 | 32.48367 | 43 ft | 16 kts | 99° |
| 2026-05-07 16:42 | 34.71347 | 32.48504 | 43 ft | 15 kts | 79° |
| 2026-05-07 16:42 | 34.71388 | 32.48623 | 43 ft | 16 kts | 65° |
| 2026-05-07 16:43 | 34.71438 | 32.48753 | 43 ft | 18 kts | 65° |
| 2026-05-07 16:43 | 34.71496 | 32.48905 | 42 ft | 21 kts | 65° |
| 2026-05-07 16:43 | 34.71607 | 32.49018 | 42 ft | 22 kts | 52° |
| 2026-05-07 16:43 | 34.71585 | 32.49191 | 43 ft | 23 kts | 112° |
| 2026-05-07 16:44 | 34.71519 | 32.49397 | 40 ft | 30 kts | 109° |
| 2026-05-07 16:44 | 34.71443 | 32.49657 | 38 ft | 35 kts | 116° |
| 2026-05-07 16:44 | 34.71377 | 32.49831 | 39 ft | 14 kts | 67° |
| 2026-05-07 16:44 | 34.71413 | 32.49843 | 39 ft | 5 kts | 338° |
| 2026-05-07 16:45 | 34.71430 | 32.49787 | 38 ft | 10 kts | 259° |
| 2026-05-07 16:45 | 34.71459 | 32.49646 | 36 ft | 43 kts | 289° |
| 2026-05-07 16:45 | 34.71655 | 32.49007 | 44 ft | 116 kts | 290° |
| 2026-05-07 16:45 | 34.72009 | 32.47854 | 98 ft | 170 kts | 294° |
| 2026-05-07 16:46 | 34.72383 | 32.46508 | 1011 ft | 163 kts | 283° |
| 2026-05-07 16:46 | 34.72158 | 32.45174 | 1786 ft | 171 kts | 235° |
| 2026-05-07 16:46 | 34.71127 | 32.44270 | 2103 ft | 201 kts | 200° |
| 2026-05-07 16:46 | 34.69691 | 32.43820 | 2357 ft | 226 kts | 193° |
| 2026-05-07 16:47 | 34.68059 | 32.43422 | 2597 ft | 252 kts | 192° |
| 2026-05-07 16:47 | 34.66282 | 32.43004 | 3109 ft | 265 kts | 192° |
| 2026-05-07 16:47 | 34.64458 | 32.42570 | 3837 ft | 270 kts | 192° |
| 2026-05-07 16:47 | 34.62601 | 32.42122 | 4603 ft | 273 kts | 192° |
| 2026-05-07 16:48 | 34.60733 | 32.41665 | 5367 ft | 276 kts | 192° |
| 2026-05-07 16:48 | 34.58840 | 32.41197 | 6096 ft | 279 kts | 192° |
| 2026-05-07 16:48 | 34.56933 | 32.40724 | 6840 ft | 281 kts | 192° |
| 2026-05-07 16:48 | 34.55002 | 32.40243 | 7526 ft | 285 kts | 193° |
| 2026-05-07 16:49 | 34.53054 | 32.39757 | 8226 ft | 287 kts | 193° |
| 2026-05-07 16:49 | 34.51081 | 32.39265 | 8912 ft | 291 kts | 193° |
| 2026-05-07 16:49 | 34.49070 | 32.38876 | 9600 ft | 297 kts | 180° |
| 2026-05-07 16:49 | 34.47048 | 32.39441 | 10210 ft | 304 kts | 155° |
| 2026-05-07 16:50 | 34.45194 | 32.40728 | 10425 ft | 325 kts | 148° |
| 2026-05-07 16:50 | 34.43246 | 32.42282 | 10593 ft | 345 kts | 146° |
| 2026-05-07 16:50 | 34.41220 | 32.43949 | 10947 ft | 357 kts | 146° |
| 2026-05-07 16:50 | 34.39146 | 32.45651 | 11513 ft | 363 kts | 146° |
| 2026-05-07 16:51 | 34.37040 | 32.47363 | 12142 ft | 366 kts | 147° |
| 2026-05-07 16:51 | 34.34907 | 32.49079 | 12769 ft | 370 kts | 147° |
| 2026-05-07 16:51 | 34.32740 | 32.50810 | 13395 ft | 376 kts | 147° |
| 2026-05-07 16:51 | 34.30541 | 32.52558 | 14013 ft | 381 kts | 147° |
| 2026-05-07 16:52 | 34.28313 | 32.54324 | 14602 ft | 385 kts | 148° |
| 2026-05-07 16:52 | 34.26062 | 32.56105 | 15223 ft | 388 kts | 148° |
| 2026-05-07 16:52 | 34.23791 | 32.57901 | 15840 ft | 393 kts | 148° |
| 2026-05-07 16:52 | 34.21494 | 32.59716 | 16434 ft | 397 kts | 148° |
| 2026-05-07 16:53 | 34.19168 | 32.61552 | 17029 ft | 401 kts | 149° |
| 2026-05-07 16:53 | 34.16820 | 32.63405 | 17620 ft | 405 kts | 149° |
| 2026-05-07 16:53 | 34.14449 | 32.65276 | 18211 ft | 409 kts | 149° |
| 2026-05-07 16:53 | 34.12051 | 32.67166 | 18740 ft | 413 kts | 149° |
| 2026-05-07 16:54 | 34.09634 | 32.69071 | 19275 ft | 416 kts | 149° |
| 2026-05-07 16:54 | 34.07195 | 32.70974 | 19816 ft | 419 kts | 150° |
| 2026-05-07 16:54 | 34.04720 | 32.72842 | 20342 ft | 422 kts | 151° |
| 2026-05-07 16:54 | 34.02214 | 32.74703 | 20858 ft | 425 kts | 151° |
| 2026-05-07 16:55 | 33.99686 | 32.76570 | 21370 ft | 427 kts | 151° |
| 2026-05-07 16:55 | 33.97141 | 32.78449 | 21872 ft | 430 kts | 151° |
| 2026-05-07 16:55 | 33.94589 | 32.80338 | 22445 ft | 431 kts | 151° |
| 2026-05-07 16:55 | 33.92041 | 32.82229 | 23125 ft | 429 kts | 151° |
| 2026-05-07 16:56 | 33.89510 | 32.84109 | 23805 ft | 426 kts | 152° |
| 2026-05-07 16:56 | 33.86989 | 32.85982 | 24342 ft | 425 kts | 152° |
| 2026-05-07 16:56 | 33.81962 | 32.89712 | 25101 ft | 427 kts | 152° |
| 2026-05-07 16:57 | 33.79471 | 32.91559 | 25089 ft | 425 kts | 152° |
| 2026-05-07 16:57 | 33.76952 | 32.93426 | 25106 ft | 426 kts | 152° |
| 2026-05-07 16:57 | 33.74431 | 32.95292 | 25116 ft | 426 kts | 152° |
| 2026-05-07 16:57 | 33.71906 | 32.97161 | 25116 ft | 426 kts | 152° |
| 2026-05-07 16:58 | 33.69538 | 32.98911 | 25118 ft | 427 kts | 152° |
| 2026-05-07 16:58 | 33.67008 | 33.00780 | 25113 ft | 427 kts | 152° |
| 2026-05-07 16:58 | 33.64480 | 33.02647 | 25109 ft | 427 kts | 152° |
| 2026-05-07 16:58 | 33.61946 | 33.04517 | 25107 ft | 427 kts | 152° |
| 2026-05-07 16:59 | 33.59418 | 33.06381 | 25104 ft | 427 kts | 152° |
| 2026-05-07 16:59 | 33.56889 | 33.08245 | 25103 ft | 426 kts | 153° |
| 2026-05-07 16:59 | 33.54585 | 33.09942 | 25106 ft | 426 kts | 153° |
| 2026-05-07 16:59 | 33.52061 | 33.11799 | 25103 ft | 426 kts | 153° |
| 2026-05-07 17:00 | 33.49537 | 33.13655 | 25104 ft | 425 kts | 153° |
| 2026-05-07 17:00 | 33.47014 | 33.15509 | 25106 ft | 425 kts | 153° |
| 2026-05-07 17:00 | 33.44493 | 33.17360 | 25104 ft | 425 kts | 153° |
| 2026-05-07 17:00 | 33.41976 | 33.19207 | 25101 ft | 425 kts | 153° |
| 2026-05-07 17:01 | 33.39457 | 33.21055 | 25104 ft | 424 kts | 153° |
| 2026-05-07 17:01 | 33.36939 | 33.22900 | 25103 ft | 424 kts | 153° |
| 2026-05-07 17:01 | 33.34420 | 33.24744 | 25103 ft | 424 kts | 153° |
| 2026-05-07 17:01 | 33.31916 | 33.26578 | 25088 ft | 418 kts | 153° |
| 2026-05-07 17:02 | 33.29476 | 33.28368 | 25084 ft | 406 kts | 154° |
| 2026-05-07 17:02 | 33.27078 | 33.30123 | 25094 ft | 403 kts | 154° |
| 2026-05-07 17:02 | 33.24721 | 33.31844 | 25099 ft | 403 kts | 154° |
| 2026-05-07 17:02 | 33.22291 | 33.33614 | 24959 ft | 405 kts | 154° |
| 2026-05-07 17:03 | 33.19922 | 33.35339 | 24669 ft | 403 kts | 154° |
| 2026-05-07 17:03 | 33.17537 | 33.37077 | 24324 ft | 401 kts | 154° |
| 2026-05-07 17:03 | 33.15169 | 33.38803 | 23978 ft | 398 kts | 154° |
| 2026-05-07 17:03 | 33.12810 | 33.40521 | 23594 ft | 396 kts | 154° |
| 2026-05-07 17:04 | 33.10460 | 33.42230 | 23155 ft | 394 kts | 154° |
| 2026-05-07 17:04 | 33.08128 | 33.43926 | 22764 ft | 392 kts | 154° |
| 2026-05-07 17:04 | 33.05809 | 33.45611 | 22367 ft | 389 kts | 154° |
| 2026-05-07 17:04 | 33.03508 | 33.47282 | 22000 ft | 386 kts | 154° |
| 2026-05-07 17:05 | 33.01225 | 33.48940 | 21633 ft | 383 kts | 154° |
| 2026-05-07 17:05 | 32.98954 | 33.50587 | 21266 ft | 381 kts | 154° |
| 2026-05-07 17:05 | 32.96698 | 33.52222 | 20904 ft | 378 kts | 154° |
| 2026-05-07 17:05 | 32.94457 | 33.53845 | 20541 ft | 376 kts | 154° |
| 2026-05-07 17:06 | 32.92227 | 33.55460 | 20180 ft | 374 kts | 154° |
| 2026-05-07 17:06 | 32.90008 | 33.57066 | 19817 ft | 373 kts | 154° |
| 2026-05-07 17:06 | 32.87797 | 33.58665 | 19458 ft | 371 kts | 154° |
| 2026-05-07 17:06 | 32.85593 | 33.60257 | 19074 ft | 370 kts | 154° |
| 2026-05-07 17:07 | 32.83400 | 33.61854 | 18715 ft | 370 kts | 151° |
| 2026-05-07 17:07 | 32.81374 | 33.63762 | 18314 ft | 375 kts | 139° |
| 2026-05-07 17:07 | 32.79550 | 33.65971 | 17921 ft | 374 kts | 137° |
| 2026-05-07 17:07 | 32.77770 | 33.68209 | 17539 ft | 372 kts | 136° |
| 2026-05-07 17:08 | 32.76792 | 33.69446 | 17342 ft | 370 kts | 136° |
| 2026-05-07 17:08 | 32.76292 | 33.70077 | 17232 ft | 370 kts | 136° |
| 2026-05-07 17:08 | 32.74484 | 33.72350 | 16860 ft | 367 kts | 137° |
| 2026-05-07 17:08 | 32.72731 | 33.74537 | 16501 ft | 365 kts | 137° |
| 2026-05-07 17:09 | 32.70981 | 33.76706 | 16148 ft | 362 kts | 137° |
| 2026-05-07 17:09 | 32.69216 | 33.78885 | 15790 ft | 360 kts | 137° |
| 2026-05-07 17:09 | 32.67507 | 33.80990 | 15442 ft | 358 kts | 137° |
| 2026-05-07 17:09 | 32.65781 | 33.83113 | 15090 ft | 356 kts | 137° |
| 2026-05-07 17:10 | 32.64065 | 33.85222 | 14742 ft | 354 kts | 137° |
| 2026-05-07 17:10 | 32.62359 | 33.87318 | 14393 ft | 353 kts | 137° |
| 2026-05-07 17:10 | 32.60799 | 33.89554 | 14103 ft | 352 kts | 123° |
| 2026-05-07 17:10 | 32.59687 | 33.92115 | 13881 ft | 346 kts | 117° |
| 2026-05-07 17:11 | 32.58762 | 33.94463 | 13622 ft | 338 kts | 116° |
| 2026-05-07 17:11 | 32.57789 | 33.96975 | 13354 ft | 333 kts | 116° |
| 2026-05-07 17:11 | 32.56824 | 33.99451 | 13089 ft | 329 kts | 116° |
| 2026-05-07 17:11 | 32.55855 | 34.01915 | 12841 ft | 331 kts | 116° |
| 2026-05-07 17:12 | 32.55205 | 34.03553 | 12679 ft | 333 kts | 116° |
| 2026-05-07 17:12 | 32.54213 | 34.06040 | 12431 ft | 333 kts | 116° |
| 2026-05-07 17:12 | 32.53224 | 34.08511 | 12173 ft | 330 kts | 117° |
| 2026-05-07 17:12 | 32.52240 | 34.10956 | 11921 ft | 327 kts | 117° |
| 2026-05-07 17:13 | 32.51124 | 34.13288 | 11657 ft | 323 kts | 126° |
| 2026-05-07 17:13 | 32.49885 | 34.15494 | 11383 ft | 320 kts | 125° |
| 2026-05-07 17:13 | 32.48672 | 34.17678 | 11136 ft | 316 kts | 124° |
| 2026-05-07 17:13 | 32.47461 | 34.19856 | 10900 ft | 317 kts | 124° |
| 2026-05-07 17:14 | 32.46246 | 34.22040 | 10655 ft | 319 kts | 124° |
| 2026-05-07 17:14 | 32.45027 | 34.24230 | 10427 ft | 317 kts | 124° |
| 2026-05-07 17:14 | 32.43818 | 34.26401 | 10186 ft | 315 kts | 124° |
| 2026-05-07 17:14 | 32.42616 | 34.28559 | 9948 ft | 313 kts | 124° |
| 2026-05-07 17:15 | 32.41427 | 34.30690 | 9684 ft | 306 kts | 124° |
| 2026-05-07 17:15 | 32.40270 | 34.32766 | 9411 ft | 298 kts | 124° |
| 2026-05-07 17:15 | 32.39144 | 34.34783 | 9142 ft | 290 kts | 124° |
| 2026-05-07 17:15 | 32.38045 | 34.36752 | 8881 ft | 285 kts | 124° |
| 2026-05-07 17:16 | 32.36957 | 34.38698 | 8625 ft | 282 kts | 124° |
| 2026-05-07 17:16 | 32.35877 | 34.40631 | 8375 ft | 281 kts | 124° |
| 2026-05-07 17:16 | 32.34801 | 34.42554 | 8127 ft | 280 kts | 124° |
| 2026-05-07 17:16 | 32.33731 | 34.44465 | 7879 ft | 278 kts | 123° |
| 2026-05-07 17:17 | 32.32665 | 34.46370 | 7637 ft | 277 kts | 124° |
| 2026-05-07 17:17 | 32.31602 | 34.48267 | 7393 ft | 277 kts | 124° |
| 2026-05-07 17:17 | 32.30541 | 34.50161 | 7146 ft | 276 kts | 124° |
| 2026-05-07 17:17 | 32.29484 | 34.52045 | 6911 ft | 274 kts | 123° |
| 2026-05-07 17:18 | 32.28431 | 34.53922 | 6676 ft | 273 kts | 123° |
| 2026-05-07 17:18 | 32.27384 | 34.55789 | 6434 ft | 272 kts | 123° |
| 2026-05-07 17:18 | 32.26341 | 34.57645 | 6181 ft | 270 kts | 123° |
| 2026-05-07 17:18 | 32.25309 | 34.59483 | 6093 ft | 267 kts | 123° |
| 2026-05-07 17:19 | 32.24276 | 34.61322 | 6064 ft | 269 kts | 123° |
| 2026-05-07 17:19 | 32.23245 | 34.63156 | 6053 ft | 267 kts | 124° |
| 2026-05-07 17:19 | 32.22217 | 34.64982 | 6050 ft | 267 kts | 124° |
| 2026-05-07 17:19 | 32.21187 | 34.66812 | 6059 ft | 268 kts | 124° |
| 2026-05-07 17:20 | 32.20155 | 34.68647 | 6058 ft | 269 kts | 124° |
| 2026-05-07 17:20 | 32.19119 | 34.70487 | 6056 ft | 269 kts | 124° |
| 2026-05-07 17:20 | 32.18079 | 34.72332 | 6054 ft | 270 kts | 124° |
| 2026-05-07 17:20 | 32.17038 | 34.74177 | 6050 ft | 270 kts | 124° |
| 2026-05-07 17:21 | 32.15998 | 34.76019 | 6060 ft | 270 kts | 124° |
| 2026-05-07 17:21 | 32.15066 | 34.77910 | 6056 ft | 270 kts | 116° |
| 2026-05-07 17:21 | 32.14276 | 34.79956 | 6058 ft | 272 kts | 114° |
| 2026-05-07 17:21 | 32.13504 | 34.81994 | 6061 ft | 277 kts | 115° |
| 2026-05-07 17:22 | 32.12710 | 34.84054 | 6042 ft | 275 kts | 115° |
| 2026-05-07 17:22 | 32.11917 | 34.86089 | 6043 ft | 271 kts | 115° |
| 2026-05-07 17:22 | 32.11129 | 34.88097 | 6044 ft | 269 kts | 116° |
| 2026-05-07 17:22 | 32.10340 | 34.90094 | 6048 ft | 268 kts | 116° |
| 2026-05-07 17:23 | 32.09555 | 34.92078 | 6044 ft | 267 kts | 116° |
| 2026-05-07 17:23 | 32.08770 | 34.94059 | 6052 ft | 266 kts | 116° |
| 2026-05-07 17:23 | 32.07985 | 34.96039 | 6057 ft | 267 kts | 116° |
| 2026-05-07 17:23 | 32.07198 | 34.98023 | 6044 ft | 268 kts | 116° |
| 2026-05-07 17:24 | 32.06406 | 35.00017 | 6057 ft | 269 kts | 116° |
| 2026-05-07 17:24 | 32.05611 | 35.02014 | 6046 ft | 268 kts | 118° |
| 2026-05-07 17:24 | 32.04549 | 35.03802 | 5913 ft | 266 kts | 133° |
| 2026-05-07 17:24 | 32.03305 | 35.05392 | 5650 ft | 263 kts | 136° |
| 2026-05-07 17:25 | 32.02070 | 35.06931 | 5462 ft | 252 kts | 135° |
| 2026-05-07 17:25 | 32.00912 | 35.08408 | 5341 ft | 239 kts | 135° |
| 2026-05-07 17:25 | 31.99823 | 35.09827 | 5156 ft | 230 kts | 134° |
| 2026-05-07 17:25 | 31.98766 | 35.11218 | 4814 ft | 228 kts | 134° |
| 2026-05-07 17:26 | 31.97706 | 35.12617 | 4597 ft | 226 kts | 134° |
| 2026-05-07 17:26 | 31.96634 | 35.13968 | 4367 ft | 224 kts | 146° |
| 2026-05-07 17:26 | 31.95224 | 35.14527 | 4301 ft | 213 kts | 181° |
| 2026-05-07 17:26 | 31.93718 | 35.14556 | 4250 ft | 223 kts | 181° |
| 2026-05-07 17:27 | 31.92177 | 35.14598 | 4129 ft | 217 kts | 187° |
| 2026-05-07 17:27 | 31.90844 | 35.14021 | 4004 ft | 196 kts | 220° |
| 2026-05-07 17:27 | 31.90010 | 35.12843 | 3799 ft | 182 kts | 245° |
| 2026-05-07 17:27 | 31.89687 | 35.11457 | 3535 ft | 173 kts | 270° |
| 2026-05-07 17:28 | 31.89714 | 35.10078 | 3346 ft | 166 kts | 275° |
| 2026-05-07 17:28 | 31.90036 | 35.08814 | 3228 ft | 159 kts | 303° |
| 2026-05-07 17:28 | 31.90596 | 35.07667 | 3236 ft | 169 kts | 299° |
| 2026-05-07 17:28 | 31.91108 | 35.06586 | 3243 ft | 178 kts | 301° |
| 2026-05-07 17:29 | 31.91735 | 35.05335 | 3221 ft | 177 kts | 302° |
| 2026-05-07 17:29 | 31.92377 | 35.04084 | 3144 ft | 181 kts | 302° |
| 2026-05-07 17:29 | 31.93038 | 35.02807 | 2906 ft | 184 kts | 303° |
| 2026-05-07 17:29 | 31.93711 | 35.01511 | 2661 ft | 187 kts | 303° |
| 2026-05-07 17:30 | 31.94391 | 35.00200 | 2390 ft | 187 kts | 303° |
| 2026-05-07 17:30 | 31.95056 | 34.98914 | 2115 ft | 179 kts | 303° |
| 2026-05-07 17:30 | 31.95678 | 34.97718 | 1898 ft | 162 kts | 304° |
| 2026-05-07 17:30 | 31.96232 | 34.96648 | 1649 ft | 146 kts | 304° |
| 2026-05-07 17:31 | 31.96741 | 34.95669 | 1461 ft | 137 kts | 305° |
| 2026-05-07 17:31 | 31.97250 | 34.94692 | 1278 ft | 143 kts | 306° |
| 2026-05-07 17:31 | 31.97774 | 34.93685 | 1070 ft | 145 kts | 305° |
| 2026-05-07 17:31 | 31.98289 | 34.92672 | 833 ft | 142 kts | 303° |
| 2026-05-07 17:32 | 31.98799 | 34.91695 | 608 ft | 139 kts | 306° |
| 2026-05-07 17:32 | 31.99308 | 34.90724 | 453 ft | 140 kts | 304° |
| 2026-05-07 17:32 | 31.99834 | 34.89733 | 235 ft | 145 kts | 304° |
| 2026-05-07 17:32 | 32.00348 | 34.88745 | 126 ft | 132 kts | 303° |
| 2026-05-07 17:33 | 32.00750 | 34.87973 | 117 ft | 81 kts | 301° |
| 2026-05-07 17:33 | 32.00956 | 34.87578 | 119 ft | 47 kts | 301° |
| 2026-05-07 17:33 | 32.01059 | 34.87249 | 120 ft | 28 kts | 275° |
| 2026-05-07 17:33 | 32.01063 | 34.87118 | 119 ft | 6 kts | 271° |
| 2026-05-07 17:34 | 32.01063 | 34.87115 | 119 ft | 0 kts | 271° |
| 2026-05-07 17:34 | 32.01063 | 34.87114 | 119 ft | 1 kts | 271° |
| 2026-05-07 17:35 | 32.01064 | 34.87081 | 119 ft | 9 kts | 271° |
| 2026-05-07 17:35 | 32.01057 | 34.86970 | 119 ft | 16 kts | 249° |
| 2026-05-07 17:35 | 32.00972 | 34.86958 | 116 ft | 16 kts | 121° |
| 2026-05-07 17:35 | 32.00916 | 34.87065 | 119 ft | 15 kts | 122° |
| 2026-05-07 17:36 | 32.00862 | 34.87168 | 118 ft | 14 kts | 122° |
| 2026-05-07 17:36 | 32.00810 | 34.87269 | 118 ft | 16 kts | 121° |
| 2026-05-07 17:36 | 32.00745 | 34.87393 | 118 ft | 18 kts | 121° |
| 2026-05-07 17:36 | 32.00680 | 34.87520 | 117 ft | 18 kts | 121° |
| 2026-05-07 17:37 | 32.00616 | 34.87642 | 117 ft | 17 kts | 126° |
| 2026-05-07 17:37 | 32.00543 | 34.87663 | 117 ft | 10 kts | 228° |
| 2026-05-07 17:37 | 32.00511 | 34.87589 | 115 ft | 11 kts | 242° |
| 2026-05-07 17:37 | 32.00455 | 34.87505 | 118 ft | 15 kts | 220° |
| 2026-05-07 17:38 | 32.00415 | 34.87470 | 118 ft | 0 kts | 217° |